createdAt,value
2018-06-29T00:00:51.868Z,3.67
2018-06-29T00:03:20.308Z,2.97
2018-06-29T00:05:48.830Z,3.07
2018-06-29T00:08:17.286Z,2.80
2018-06-29T00:10:45.728Z,2.93
2018-06-29T00:13:14.282Z,2.70
2018-06-29T00:15:42.730Z,2.50
2018-06-29T00:18:11.220Z,2.90
2018-06-29T00:20:39.721Z,3.50
2018-06-29T00:23:08.164Z,2.90
2018-06-29T00:25:36.612Z,2.80
2018-06-29T00:28:05.312Z,3.40
2018-06-29T00:30:33.819Z,3.33
2018-06-29T00:33:02.250Z,2.80
2018-06-29T00:35:30.736Z,3.50
2018-06-29T00:37:59.188Z,2.70
2018-06-29T00:40:27.750Z,2.77
2018-06-29T00:42:56.192Z,2.50
2018-06-29T00:45:24.612Z,2.67
2018-06-29T00:47:53.367Z,2.60
2018-06-29T00:50:24.098Z,2.50
2018-06-29T00:52:53.788Z,2.70
2018-06-29T00:55:22.299Z,2.30
2018-06-29T00:57:50.737Z,3.03
2018-06-29T01:00:19.169Z,2.50
2018-06-29T01:02:47.851Z,2.70
2018-06-29T01:05:16.280Z,2.50
2018-06-29T01:07:44.794Z,2.70
2018-06-29T01:10:13.393Z,2.70
2018-06-29T01:12:42.126Z,2.77
2018-06-29T01:15:10.557Z,2.63
2018-06-29T01:17:39.021Z,2.40
2018-06-29T01:20:07.745Z,2.80
2018-06-29T01:22:36.217Z,2.60
2018-06-29T01:25:04.689Z,2.70
2018-06-29T01:27:33.099Z,3.10
2018-06-29T01:30:01.547Z,3.40
2018-06-29T01:32:29.981Z,2.93
2018-06-29T01:34:58.400Z,3.00
2018-06-29T01:37:26.866Z,2.87
2018-06-29T01:39:55.443Z,2.80
2018-06-29T01:42:23.887Z,2.77
2018-06-29T01:44:52.323Z,2.73
2018-06-29T01:47:20.767Z,2.80
2018-06-29T01:49:50.015Z,2.37
2018-06-29T01:52:18.658Z,3.27
2018-06-29T01:54:47.082Z,3.00
2018-06-29T01:57:17.149Z,2.60
2018-06-29T01:59:45.791Z,2.50
2018-06-29T02:02:14.321Z,2.83
2018-06-29T02:04:42.801Z,2.63
2018-06-29T02:07:11.299Z,2.80
2018-06-29T02:09:39.885Z,3.20
2018-06-29T02:12:10.296Z,2.80
2018-06-29T02:14:38.721Z,2.60
2018-06-29T02:17:07.263Z,2.50
2018-06-29T02:19:35.776Z,2.83
2018-06-29T02:22:04.356Z,3.33
2018-06-29T02:24:32.782Z,2.77
2018-06-29T02:27:01.338Z,3.10
2018-06-29T02:29:29.902Z,2.93
2018-06-29T02:31:58.358Z,3.20
2018-06-29T02:34:26.772Z,3.43
2018-06-29T02:36:55.204Z,3.00
2018-06-29T02:39:23.660Z,3.03
2018-06-29T02:41:52.144Z,3.10
2018-06-29T02:44:20.646Z,3.43
2018-06-29T02:46:49.103Z,2.90
2018-06-29T02:49:17.580Z,6.07
2018-06-29T02:51:46.028Z,4.10
2018-06-29T02:54:14.469Z,3.30
2018-06-29T02:56:42.889Z,3.40
2018-06-29T02:59:11.365Z,3.77
2018-06-29T03:01:39.833Z,3.80
2018-06-29T03:04:08.271Z,4.40
2018-06-29T03:06:36.650Z,4.70
2018-06-29T03:09:07.502Z,3.70
2018-06-29T03:11:35.984Z,8.03
2018-06-29T03:14:04.471Z,4.60
2018-06-29T03:16:32.928Z,3.40
2018-06-29T03:19:01.377Z,3.10
2018-06-29T03:21:29.932Z,3.00
2018-06-29T03:23:58.402Z,5.27
2018-06-29T03:26:26.906Z,5.80
2018-06-29T03:28:55.846Z,3.80
2018-06-29T03:31:24.808Z,3.37
2018-06-29T03:33:53.264Z,3.60
2018-06-29T03:36:21.719Z,3.53
2018-06-29T03:38:50.147Z,3.80
2018-06-29T03:41:18.558Z,4.10
2018-06-29T03:43:47.005Z,3.80
2018-06-29T03:46:15.487Z,4.33
2018-06-29T03:48:44.023Z,4.23
2018-06-29T03:51:12.525Z,3.70
2018-06-29T03:53:41.021Z,3.63
2018-06-29T03:56:09.581Z,4.00
2018-06-29T03:58:38.003Z,3.80
2018-06-29T04:01:07.593Z,3.30
2018-06-29T04:03:36.119Z,4.10
2018-06-29T04:06:04.640Z,3.67
2018-06-29T04:08:33.111Z,3.83
2018-06-29T04:11:01.650Z,3.87
2018-06-29T04:13:30.211Z,4.60
2018-06-29T04:15:58.631Z,4.50
2018-06-29T04:18:27.108Z,4.90
2018-06-29T04:20:55.538Z,4.33
2018-06-29T04:23:24.066Z,5.00
2018-06-29T04:25:52.524Z,5.40
2018-06-29T04:28:20.968Z,4.33
2018-06-29T04:30:49.384Z,4.73
2018-06-29T04:33:17.864Z,3.77
2018-06-29T04:35:46.294Z,3.57
2018-06-29T04:38:14.726Z,3.97
2018-06-29T04:40:43.330Z,3.40
2018-06-29T04:43:11.812Z,3.40
2018-06-29T04:45:40.282Z,3.40
2018-06-29T04:48:08.702Z,3.77
2018-06-29T04:50:38.007Z,4.30
2018-06-29T04:53:06.414Z,4.67
2018-06-29T04:55:34.840Z,4.47
2018-06-29T04:58:03.328Z,3.47
2018-06-29T05:00:31.972Z,3.97
2018-06-29T05:03:00.342Z,3.93
2018-06-29T05:05:28.928Z,3.00
2018-06-29T05:07:57.468Z,2.93
2018-06-29T05:10:25.861Z,3.83
2018-06-29T05:12:54.282Z,3.70
2018-06-29T05:15:22.796Z,3.40
2018-06-29T05:17:51.488Z,3.47
2018-06-29T05:20:19.984Z,3.50
2018-06-29T05:22:48.360Z,3.10
2018-06-29T05:25:16.811Z,2.93
2018-06-29T05:27:45.307Z,3.57
2018-06-29T05:30:13.803Z,3.00
2018-06-29T05:32:42.269Z,3.43
2018-06-29T05:35:10.710Z,2.93
2018-06-29T05:37:39.140Z,3.67
2018-06-29T05:40:07.757Z,3.07
2018-06-29T05:42:37.244Z,3.83
2018-06-29T05:45:06.006Z,4.40
2018-06-29T05:47:34.463Z,3.93
2018-06-29T05:50:02.916Z,3.40
2018-06-29T05:52:31.456Z,4.30
2018-06-29T05:55:00.123Z,4.10
2018-06-29T05:57:28.653Z,4.27
2018-06-29T05:59:57.354Z,3.93
2018-06-29T06:02:25.870Z,3.60
2018-06-29T06:04:54.325Z,3.60
2018-06-29T06:07:23.358Z,3.83
2018-06-29T06:09:51.813Z,3.87
2018-06-29T06:12:20.332Z,3.67
2018-06-29T06:14:48.794Z,3.80
2018-06-29T06:17:17.188Z,3.70
2018-06-29T06:19:56.925Z,3.70
2018-06-29T06:22:25.367Z,3.73
2018-06-29T06:24:53.893Z,3.10
2018-06-29T06:27:22.299Z,3.60
2018-06-29T06:29:50.731Z,3.80
2018-06-29T06:32:19.209Z,4.70
2018-06-29T06:34:47.647Z,4.00
2018-06-29T06:37:16.159Z,3.70
2018-06-29T06:39:44.599Z,3.00
2018-06-29T06:42:13.098Z,3.43
2018-06-29T06:44:41.596Z,3.77
2018-06-29T06:47:11.820Z,3.80
2018-06-29T06:49:40.262Z,3.43
2018-06-29T06:52:09.759Z,3.60
2018-06-29T06:54:38.163Z,3.33
2018-06-29T06:57:06.862Z,3.40
2018-06-29T06:59:35.368Z,3.03
2018-06-29T07:02:03.862Z,3.33
2018-06-29T07:04:32.680Z,3.73
2018-06-29T07:07:01.338Z,2.87
2018-06-29T07:09:29.818Z,3.57
2018-06-29T07:11:58.271Z,3.37
2018-06-29T07:14:26.754Z,2.87
2018-06-29T07:16:55.250Z,3.17
2018-06-29T07:19:23.695Z,7.40
2018-06-29T07:21:52.119Z,3.40
2018-06-29T07:24:20.594Z,2.60
2018-06-29T07:26:49.060Z,2.63
2018-06-29T07:29:17.602Z,3.50
2018-06-29T07:31:46.146Z,2.97
2018-06-29T07:34:14.602Z,3.20
2018-06-29T07:36:43.073Z,2.70
2018-06-29T07:39:11.566Z,2.77
2018-06-29T07:41:39.823Z,3.20
2018-06-29T07:44:08.310Z,3.00
2018-06-29T07:46:36.879Z,2.90
2018-06-29T07:49:05.275Z,2.80
2018-06-29T07:51:33.755Z,3.13
2018-06-29T07:54:02.300Z,3.20
2018-06-29T07:56:30.935Z,3.03
2018-06-29T07:58:59.547Z,2.57
2018-06-29T08:01:27.999Z,3.03
2018-06-29T08:03:56.602Z,2.87
2018-06-29T08:06:26.371Z,3.30
2018-06-29T08:08:54.794Z,3.07
2018-06-29T08:11:23.336Z,2.60
2018-06-29T08:13:51.884Z,3.50
2018-06-29T08:16:20.425Z,3.30
2018-06-29T08:18:49.681Z,3.23
2018-06-29T08:21:18.126Z,2.80
2018-06-29T08:23:46.552Z,3.77
2018-06-29T08:26:26.456Z,3.13
2018-06-29T08:28:55.071Z,2.53
2018-06-29T08:31:23.626Z,3.40
2018-06-29T08:33:52.246Z,3.10
2018-06-29T08:36:20.764Z,2.90
2018-06-29T08:38:49.312Z,3.10
2018-06-29T08:41:17.868Z,3.67
2018-06-29T08:43:47.369Z,3.20
2018-06-29T08:46:15.932Z,4.07
2018-06-29T08:48:44.434Z,3.70
2018-06-29T08:51:12.935Z,2.80
2018-06-29T08:53:41.377Z,2.90
2018-06-29T08:56:09.835Z,3.13
2018-06-29T08:58:38.260Z,2.70
2018-06-29T09:01:06.727Z,2.73
2018-06-29T09:03:35.139Z,2.67
2018-06-29T09:06:03.808Z,2.43
2018-06-29T09:08:32.428Z,2.80
2018-06-29T09:11:01.113Z,3.07
2018-06-29T09:13:29.592Z,2.90
2018-06-29T09:15:58.039Z,2.97
2018-06-29T09:18:26.532Z,3.20
2018-06-29T09:20:55.100Z,2.90
2018-06-29T09:23:23.750Z,2.70
2018-06-29T09:25:52.249Z,3.10
2018-06-29T09:28:20.668Z,2.60
2018-06-29T09:30:49.147Z,2.50
2018-06-29T09:33:17.668Z,2.60
2018-06-29T09:35:46.105Z,2.80
2018-06-29T09:38:14.685Z,2.87
2018-06-29T09:40:43.180Z,2.90
2018-06-29T09:43:11.663Z,2.67
2018-06-29T09:45:40.141Z,2.77
2018-06-29T09:48:08.829Z,2.67
2018-06-29T09:50:37.113Z,2.50
2018-06-29T09:53:05.905Z,2.67
2018-06-29T09:55:34.461Z,2.70
2018-06-29T09:58:02.901Z,3.07
2018-06-29T10:00:32.767Z,2.90
2018-06-29T10:03:01.559Z,2.70
2018-06-29T10:05:30.349Z,2.83
2018-06-29T10:07:58.826Z,2.70
2018-06-29T10:10:27.439Z,2.70
2018-06-29T10:12:56.029Z,2.70
2018-06-29T10:15:24.465Z,2.67
2018-06-29T10:17:52.897Z,2.63
2018-06-29T10:20:21.623Z,2.90
2018-06-29T10:22:50.144Z,2.73
2018-06-29T10:25:18.724Z,3.20
2018-06-29T10:27:47.189Z,2.70
2018-06-29T10:30:15.752Z,2.97
2018-06-29T10:32:43.916Z,3.37
2018-06-29T10:35:12.341Z,2.73
2018-06-29T10:37:41.188Z,2.63
2018-06-29T10:40:09.661Z,2.87
2018-06-29T10:42:38.205Z,2.93
2018-06-29T10:45:06.783Z,2.70
2018-06-29T10:47:35.191Z,2.83
2018-06-29T10:50:03.845Z,2.60
2018-06-29T10:52:32.304Z,2.80
2018-06-29T10:55:00.927Z,3.10
2018-06-29T10:57:29.402Z,2.93
2018-06-29T10:59:57.841Z,2.70
2018-06-29T11:02:26.346Z,2.90
2018-06-29T11:04:54.857Z,3.03
2018-06-29T11:07:23.438Z,2.73
2018-06-29T11:09:51.911Z,2.60
2018-06-29T11:12:20.399Z,2.67
2018-06-29T11:14:48.863Z,3.10
2018-06-29T11:17:17.319Z,2.80
2018-06-29T11:19:46.419Z,2.83
2018-06-29T11:22:14.811Z,2.50
2018-06-29T11:24:43.306Z,2.50
2018-06-29T11:27:11.873Z,2.73
2018-06-29T11:29:40.355Z,2.37
2018-06-29T11:32:09.007Z,2.70
2018-06-29T11:34:37.783Z,3.30
2018-06-29T11:37:06.324Z,3.60
2018-06-29T11:39:34.766Z,2.97
2018-06-29T11:42:03.243Z,2.80
2018-06-29T11:44:31.661Z,2.80
2018-06-29T11:47:00.084Z,2.40
2018-06-29T11:49:28.620Z,2.43
2018-06-29T11:51:57.078Z,2.10
2018-06-29T11:54:25.507Z,2.33
2018-06-29T11:56:54.012Z,2.40
2018-06-29T11:59:22.448Z,2.47
2018-06-29T12:01:50.949Z,2.60
2018-06-29T12:04:19.398Z,2.70
2018-06-29T12:06:47.864Z,2.67
2018-06-29T12:09:16.409Z,2.30
2018-06-29T12:11:47.001Z,2.60
2018-06-29T12:14:15.568Z,2.00
2018-06-29T12:16:44.112Z,2.13
2018-06-29T12:19:12.504Z,2.27
2018-06-29T12:21:40.943Z,2.50
2018-06-29T12:24:09.721Z,1.93
2018-06-29T12:26:38.195Z,1.80
2018-06-29T12:29:06.768Z,2.50
2018-06-29T12:31:35.316Z,2.20
2018-06-29T12:34:03.903Z,2.00
2018-06-29T12:36:32.370Z,2.50
2018-06-29T12:39:00.908Z,2.50
2018-06-29T12:41:29.515Z,2.07
2018-06-29T12:43:58.066Z,2.10
2018-06-29T12:46:26.644Z,2.40
2018-06-29T12:48:55.138Z,2.10
2018-06-29T12:51:23.820Z,2.07
2018-06-29T12:53:52.276Z,2.53
2018-06-29T12:56:20.876Z,2.80
2018-06-29T12:58:50.416Z,2.20
2018-06-29T13:01:18.924Z,2.30
2018-06-29T13:03:47.394Z,1.90
2018-06-29T13:06:15.856Z,1.93
2018-06-29T13:08:44.285Z,2.30
2018-06-29T13:11:12.760Z,2.20
2018-06-29T13:13:41.164Z,2.17
2018-06-29T13:16:10.532Z,1.83
2018-06-29T13:18:39.079Z,2.20
2018-06-29T13:21:07.530Z,2.13
2018-06-29T13:23:36.152Z,2.60
2018-06-29T13:26:07.124Z,2.37
2018-06-29T13:28:35.616Z,2.10
2018-06-29T13:31:04.293Z,2.20
2018-06-29T13:33:32.972Z,2.10
2018-06-29T13:36:01.565Z,2.50
2018-06-29T13:38:30.373Z,2.33
2018-06-29T13:40:59.064Z,2.50
2018-06-29T13:43:30.975Z,2.40
2018-06-29T13:45:59.582Z,2.97
2018-06-29T13:48:28.366Z,2.20
2018-06-29T13:50:56.988Z,2.70
2018-06-29T13:53:25.504Z,2.57
2018-06-29T13:55:54.017Z,2.47
2018-06-29T13:58:22.689Z,2.13
2018-06-29T14:00:51.283Z,2.40
2018-06-29T14:03:19.885Z,2.20
2018-06-29T14:05:48.297Z,2.70
2018-06-29T14:08:16.793Z,2.93
2018-06-29T14:10:45.279Z,2.50
2018-06-29T14:13:13.717Z,2.37
2018-06-29T14:15:46.418Z,2.40
2018-06-29T14:18:15.025Z,2.77
2018-06-29T14:20:50.064Z,4.07
2018-06-29T14:23:18.858Z,3.10
2018-06-29T14:25:48.515Z,3.33
2018-06-29T14:28:17.108Z,2.30
2018-06-29T14:30:47.173Z,2.43
2018-06-29T14:33:15.812Z,3.30
2018-06-29T14:35:44.296Z,2.30
2018-06-29T14:38:12.940Z,2.60
2018-06-29T14:40:42.433Z,2.83
2018-06-29T14:43:10.855Z,2.73
2018-06-29T14:45:39.384Z,2.83
2018-06-29T14:48:07.978Z,2.57
2018-06-29T14:50:36.529Z,3.00
2018-06-29T14:53:05.094Z,2.63
2018-06-29T14:55:33.558Z,2.97
2018-06-29T14:58:01.965Z,2.60
2018-06-29T15:00:30.447Z,3.23
2018-06-29T15:02:59.147Z,2.60
2018-06-29T15:05:27.644Z,2.90
2018-06-29T15:07:56.137Z,2.60
2018-06-29T15:10:24.602Z,2.60
2018-06-29T15:12:53.039Z,3.63
2018-06-29T15:15:25.187Z,2.67
2018-06-29T15:17:53.634Z,2.47
2018-06-29T15:20:22.045Z,2.77
2018-06-29T15:22:50.475Z,2.40
2018-06-29T15:25:18.937Z,2.70
2018-06-29T15:27:47.368Z,2.73
2018-06-29T15:30:15.895Z,2.60
2018-06-29T15:32:44.373Z,2.50
2018-06-29T15:35:12.907Z,3.40
2018-06-29T15:37:41.323Z,2.93
2018-06-29T15:40:09.747Z,2.63
2018-06-29T15:42:38.211Z,3.23
2018-06-29T15:45:07.135Z,3.13
2018-06-29T15:47:35.591Z,2.60
2018-06-29T15:50:04.459Z,2.73
2018-06-29T15:52:32.883Z,2.30
2018-06-29T15:55:01.320Z,2.60
2018-06-29T15:57:29.732Z,2.30
2018-06-29T15:59:58.197Z,2.83
2018-06-29T16:02:30.495Z,2.87
2018-06-29T16:04:59.184Z,2.67
2018-06-29T16:07:28.527Z,2.33
2018-06-29T16:09:56.991Z,2.90
2018-06-29T16:12:25.390Z,2.70
2018-06-29T16:14:53.864Z,3.37
2018-06-29T16:17:22.404Z,2.93
2018-06-29T16:19:50.853Z,3.33
2018-06-29T16:22:19.468Z,2.40
2018-06-29T16:24:47.964Z,3.50
2018-06-29T16:27:16.447Z,2.43
2018-06-29T16:29:45.044Z,3.10
2018-06-29T16:32:13.486Z,2.33
2018-06-29T16:34:42.067Z,2.67
2018-06-29T16:37:10.448Z,2.47
2018-06-29T16:39:39.336Z,2.20
2018-06-29T16:42:07.874Z,2.83
2018-06-29T16:44:36.384Z,2.37
2018-06-29T16:47:06.863Z,2.70
2018-06-29T16:49:35.309Z,2.47
2018-06-29T16:52:03.807Z,2.50
2018-06-29T16:54:32.261Z,2.47
2018-06-29T16:57:00.831Z,2.60
2018-06-29T16:59:29.290Z,2.63
2018-06-29T17:01:57.806Z,3.40
2018-06-29T17:04:26.234Z,2.60
2018-06-29T17:06:54.840Z,2.50
2018-06-29T17:09:23.634Z,2.57
2018-06-29T17:11:52.115Z,3.33
2018-06-29T17:14:20.599Z,3.07
2018-06-29T17:16:49.014Z,2.87
2018-06-29T17:19:17.534Z,3.10
2018-06-29T17:21:45.939Z,3.20
2018-06-29T17:24:14.772Z,2.50
2018-06-29T17:26:43.179Z,2.93
2018-06-29T17:29:11.966Z,3.10
2018-06-29T17:31:40.334Z,2.47
2018-06-29T17:34:09.399Z,2.80
2018-06-29T17:36:37.928Z,2.53
2018-06-29T17:39:08.670Z,3.60
2018-06-29T17:41:37.480Z,3.23
2018-06-29T17:44:05.981Z,2.73
2018-06-29T17:46:34.470Z,2.77
2018-06-29T17:49:03.138Z,3.30
2018-06-29T17:51:31.802Z,3.23
2018-06-29T17:54:00.359Z,3.00
2018-06-29T17:56:28.636Z,3.57
2018-06-29T17:58:57.204Z,3.03
2018-06-29T18:01:25.840Z,3.00
2018-06-29T18:03:54.304Z,2.90
2018-06-29T18:06:23.990Z,3.17
2018-06-29T18:08:53.332Z,3.30
2018-06-29T18:11:22.164Z,3.60
2018-06-29T18:13:50.945Z,2.90
2018-06-29T18:16:19.549Z,3.23
2018-06-29T18:18:49.464Z,3.80
2018-06-29T18:21:18.503Z,3.73
2018-06-29T18:23:47.000Z,3.37
2018-06-29T18:26:15.549Z,3.57
2018-06-29T18:28:44.088Z,3.37
2018-06-29T18:31:16.582Z,3.00
2018-06-29T18:33:46.737Z,2.97
2018-06-29T18:36:15.245Z,3.43
2018-06-29T18:38:46.307Z,2.90
2018-06-29T18:41:14.780Z,3.73
2018-06-29T18:43:43.210Z,4.07
2018-06-29T18:46:11.755Z,3.40
2018-06-29T18:48:40.306Z,3.70
2018-06-29T18:51:08.930Z,3.07
2018-06-29T18:53:37.365Z,3.63
2018-06-29T18:56:05.844Z,4.30
2018-06-29T18:58:34.332Z,3.77
2018-06-29T19:01:02.728Z,3.37
2018-06-29T19:03:31.188Z,4.57
2018-06-29T19:05:59.852Z,4.40
2018-06-29T19:08:28.445Z,4.20
2018-06-29T19:10:56.996Z,5.00
2018-06-29T19:13:25.475Z,3.90
2018-06-29T19:15:54.065Z,4.40
2018-06-29T19:18:22.665Z,4.10
2018-06-29T19:20:51.168Z,4.80
2018-06-29T19:23:21.865Z,4.40
2018-06-29T19:25:50.339Z,4.10
2018-06-29T19:28:18.927Z,4.73
2018-06-29T19:30:47.478Z,3.87
2018-06-29T19:33:16.447Z,3.80
2018-06-29T19:35:44.947Z,4.40
2018-06-29T19:38:13.516Z,3.80
2018-06-29T19:40:41.933Z,4.80
2018-06-29T19:43:10.341Z,4.43
2018-06-29T19:45:38.749Z,5.33
2018-06-29T19:48:07.225Z,4.13
2018-06-29T19:50:36.117Z,3.90
2018-06-29T19:53:04.667Z,3.50
2018-06-29T19:55:33.085Z,5.37
2018-06-29T19:58:02.637Z,4.53
2018-06-29T20:00:31.121Z,4.70
2018-06-29T20:02:59.603Z,3.90
2018-06-29T20:05:28.125Z,4.67
2018-06-29T20:07:56.694Z,4.57
2018-06-29T20:10:25.115Z,4.43
2018-06-29T20:12:53.554Z,4.47
2018-06-29T20:15:22.238Z,4.13
2018-06-29T20:17:50.730Z,3.43
2018-06-29T20:20:19.344Z,3.47
2018-06-29T20:22:47.877Z,5.10
2018-06-29T20:25:16.301Z,4.17
2018-06-29T20:27:44.680Z,4.10
2018-06-29T20:30:13.240Z,4.80
2018-06-29T20:32:41.802Z,4.60
2018-06-29T20:35:10.251Z,4.83
2018-06-29T20:37:38.752Z,5.50
2018-06-29T20:40:07.304Z,4.30
2018-06-29T20:42:35.794Z,5.20
2018-06-29T20:45:04.498Z,5.53
2018-06-29T20:47:32.916Z,6.00
2018-06-29T20:50:01.330Z,5.30
2018-06-29T20:52:29.832Z,3.83
2018-06-29T20:54:58.276Z,4.60
2018-06-29T20:57:26.740Z,5.43
2018-06-29T20:59:55.178Z,5.47
2018-06-29T21:02:23.697Z,6.40
2018-06-29T21:04:52.298Z,6.50
2018-06-29T21:07:20.724Z,5.77
2018-06-29T21:09:49.154Z,4.57
2018-06-29T21:12:17.875Z,5.47
2018-06-29T21:14:46.506Z,7.20
2018-06-29T21:17:14.990Z,4.70
2018-06-29T21:19:43.495Z,5.57
2018-06-29T21:22:11.936Z,7.00
2018-06-29T21:24:40.344Z,5.20
2018-06-29T21:27:08.984Z,5.60
2018-06-29T21:29:37.423Z,6.70
2018-06-29T21:32:05.852Z,8.57
2018-06-29T21:34:34.452Z,6.93
2018-06-29T21:37:02.884Z,4.60
2018-06-29T21:39:31.424Z,5.80
2018-06-29T21:41:59.872Z,5.00
2018-06-29T21:44:28.340Z,5.40
2018-06-29T21:46:56.840Z,6.60
2018-06-29T21:49:25.304Z,16.00
2018-06-29T21:51:53.745Z,25.57
2018-06-29T21:54:23.428Z,11.63
2018-06-29T21:56:51.891Z,16.33
2018-06-29T21:59:21.585Z,15.07
2018-06-29T22:01:50.113Z,12.03
2018-06-29T22:04:18.699Z,24.87
2018-06-29T22:06:47.294Z,27.10
2018-06-29T22:09:15.783Z,32.53
2018-06-29T22:11:44.413Z,20.50
2018-06-29T22:14:12.927Z,11.30
2018-06-29T22:16:41.605Z,10.67
2018-06-29T22:19:10.223Z,7.10
2018-06-29T22:21:38.408Z,8.50
2018-06-29T22:24:13.756Z,9.30
2018-06-29T22:26:42.204Z,21.23
2018-06-29T22:29:10.659Z,17.00
2018-06-29T22:31:39.115Z,20.00
2018-06-29T22:34:07.643Z,11.40
2018-06-29T22:36:36.103Z,12.20
2018-06-29T22:39:07.779Z,22.30
2018-06-29T22:41:36.217Z,18.67
2018-06-29T22:44:04.826Z,12.70
2018-06-29T22:46:33.305Z,12.60
2018-06-29T22:49:01.953Z,8.77
2018-06-29T22:51:30.431Z,7.10
2018-06-29T22:53:58.885Z,19.63
2018-06-29T22:56:27.293Z,14.40
2018-06-29T22:58:55.780Z,22.73
2018-06-29T23:01:24.320Z,14.03
2018-06-29T23:03:53.629Z,12.77
2018-06-29T23:06:22.861Z,16.83
2018-06-29T23:08:51.581Z,24.40
2018-06-29T23:11:20.173Z,16.13
2018-06-29T23:13:49.402Z,17.40
2018-06-29T23:16:18.346Z,15.07
2018-06-29T23:18:47.423Z,9.83
2018-06-29T23:21:15.880Z,8.87
2018-06-29T23:23:44.797Z,21.67
2018-06-29T23:26:13.225Z,14.77
2018-06-29T23:28:41.769Z,11.40
2018-06-29T23:31:10.322Z,9.70
2018-06-29T23:33:38.753Z,8.33
2018-06-29T23:36:07.161Z,7.83
2018-06-29T23:38:37.701Z,8.40
2018-06-29T23:41:06.305Z,7.77
2018-06-29T23:43:34.740Z,8.23
2018-06-29T23:46:03.611Z,7.60
2018-06-29T23:48:32.029Z,7.40
2018-06-29T23:51:00.511Z,7.20
2018-06-29T23:53:28.997Z,9.33
2018-06-29T23:56:01.408Z,8.30
2018-06-29T23:58:29.843Z,8.30
